createdAt,value
2023-05-04T00:01:20.207Z,69.99
2023-05-04T00:05:22.140Z,70.31
2023-05-04T00:09:23.925Z,70.86
2023-05-04T00:13:25.735Z,70.65
2023-05-04T00:17:27.562Z,71.15
2023-05-04T00:21:29.561Z,70.85
2023-05-04T00:25:31.719Z,71.05
2023-05-04T00:29:33.581Z,71.29
2023-05-04T00:33:35.383Z,71.32
2023-05-04T00:37:37.234Z,71.39
2023-05-04T00:41:39.054Z,72.10
2023-05-04T00:45:41.534Z,71.79
2023-05-04T00:49:43.539Z,71.77
2023-05-04T00:53:45.680Z,72.16
2023-05-04T00:57:49.862Z,71.92
2023-05-04T01:01:51.723Z,72.36
2023-05-04T01:06:08.246Z,72.12
2023-05-04T01:10:26.523Z,72.52
2023-05-04T01:18:32.288Z,72.78
2023-05-04T01:22:38.443Z,72.91
2023-05-04T01:26:43.511Z,73.08
2023-05-04T01:30:51.666Z,73.43
2023-05-04T01:34:53.552Z,73.03
2023-05-04T01:38:58.559Z,73.18
2023-05-04T01:43:00.363Z,73.51
2023-05-04T01:47:02.244Z,73.37
2023-05-04T01:51:04.440Z,73.52
2023-05-04T01:55:06.581Z,74.09
2023-05-04T01:59:08.338Z,74.00
2023-05-04T02:03:10.845Z,74.30
2023-05-04T02:07:13.217Z,74.30
2023-05-04T02:11:16.492Z,73.99
2023-05-04T02:15:20.480Z,74.32
2023-05-04T02:19:22.375Z,74.30
2023-05-04T02:23:24.470Z,74.29
2023-05-04T02:27:26.447Z,74.76
2023-05-04T02:31:28.464Z,74.64
2023-05-04T02:35:31.401Z,75.02
2023-05-04T02:39:33.212Z,75.13
2023-05-04T02:43:36.888Z,75.06
2023-05-04T02:47:38.777Z,75.31
2023-05-04T02:51:40.745Z,75.20
2023-05-04T02:55:42.574Z,75.14
2023-05-04T02:59:44.364Z,75.54
2023-05-04T03:03:46.285Z,75.22
2023-05-04T03:07:48.132Z,75.38
2023-05-04T03:11:49.957Z,75.32
2023-05-04T03:15:51.850Z,75.65
2023-05-04T03:19:53.842Z,75.78
2023-05-04T03:23:55.810Z,75.69
2023-05-04T03:27:57.821Z,75.79
2023-05-04T03:31:59.833Z,75.99
2023-05-04T03:36:01.849Z,76.31
2023-05-04T03:40:04.505Z,76.03
2023-05-04T03:44:06.703Z,76.23
2023-05-04T03:48:10.052Z,76.41
2023-05-04T03:52:11.997Z,76.54
2023-05-04T03:56:14.001Z,76.50
2023-05-04T04:00:16.636Z,76.56
2023-05-04T04:04:23.997Z,76.54
2023-05-04T04:08:26.396Z,76.77
2023-05-04T04:12:28.293Z,76.91
2023-05-04T04:16:30.146Z,76.69
2023-05-04T04:20:33.085Z,76.88
2023-05-04T04:24:34.914Z,76.73
2023-05-04T04:28:36.947Z,77.00
2023-05-04T04:32:39.171Z,77.17
2023-05-04T04:36:41.061Z,76.92
2023-05-04T04:40:43.018Z,77.30
2023-05-04T04:44:45.875Z,76.84
2023-05-04T04:48:48.118Z,77.11
2023-05-04T04:52:50.010Z,76.83
2023-05-04T04:56:51.878Z,77.16
2023-05-04T05:00:56.131Z,77.08
2023-05-04T05:04:57.975Z,76.79
2023-05-04T20:45:06.608Z,54.46
2023-05-04T20:49:09.460Z,55.27
2023-05-04T20:53:11.691Z,56.19
2023-05-04T20:57:13.695Z,56.68
2023-05-04T21:01:15.538Z,56.96
2023-05-04T21:05:17.318Z,57.54
2023-05-04T21:09:19.225Z,57.33
2023-05-04T21:13:21.010Z,57.47
2023-05-04T21:17:23.039Z,57.64
2023-05-04T21:21:25.027Z,57.35
2023-05-04T21:25:26.967Z,57.05
2023-05-04T21:29:28.933Z,57.28
2023-05-04T21:33:30.912Z,57.28
2023-05-04T21:37:33.410Z,57.31
2023-05-04T21:41:35.242Z,57.52
2023-05-04T21:45:37.030Z,57.15
2023-05-04T21:49:38.943Z,57.33
2023-05-04T21:53:43.448Z,56.97
2023-05-04T21:57:45.414Z,57.39
2023-05-04T22:01:47.405Z,57.23
2023-05-04T22:05:54.431Z,57.36
2023-05-04T22:09:56.413Z,57.58
2023-05-04T22:13:58.212Z,57.45
2023-05-04T22:18:00.205Z,57.65
2023-05-04T22:22:02.029Z,57.75
2023-05-04T22:26:03.948Z,57.80
2023-05-04T22:30:06.770Z,58.34
2023-05-04T22:34:09.234Z,58.05
2023-05-04T22:38:12.148Z,57.95
2023-05-04T22:42:14.040Z,58.14
2023-05-04T22:46:17.253Z,57.96
2023-05-04T22:50:19.861Z,58.36
2023-05-04T22:54:21.650Z,58.48
2023-05-04T22:58:23.838Z,58.84
2023-05-04T23:02:25.841Z,58.79
2023-05-04T23:06:28.650Z,58.94
2023-05-04T23:10:30.462Z,59.01
2023-05-04T23:14:32.257Z,58.94
2023-05-04T23:18:34.159Z,58.96
2023-05-04T23:22:35.932Z,59.43
2023-05-04T23:26:37.730Z,59.80
2023-05-04T23:30:39.633Z,59.95
2023-05-04T23:34:41.550Z,60.22
2023-05-04T23:38:43.401Z,60.43
2023-05-04T23:42:49.598Z,60.40
2023-05-04T23:46:51.477Z,60.29
2023-05-04T23:50:54.199Z,61.22
2023-05-04T23:54:56.234Z,61.91
2023-05-04T23:58:58.385Z,63.03
